sensor_id;sensor_type;location;lat;lon;timestamp;pressure;altitude;pressure_sealevel;temperature;humidity
64388;BME280;50709;52.648;4.764;2023-03-12T00:00:41;101170.84;;;8.21;64.84
64388;BME280;50709;52.648;4.764;2023-03-12T00:03:07;101183.38;;;7.94;66.41
64388;BME280;50709;52.648;4.764;2023-03-12T00:05:32;101180.66;;;7.87;66.59
64388;BME280;50709;52.648;4.764;2023-03-12T00:07:58;101172.63;;;7.75;67.38
64388;BME280;50709;52.648;4.764;2023-03-12T00:10:27;101172.03;;;7.88;66.26
64388;BME280;50709;52.648;4.764;2023-03-12T00:12:53;101164.63;;;7.64;66.48
64388;BME280;50709;52.648;4.764;2023-03-12T00:15:19;101168.38;;;8.29;67.26
64388;BME280;50709;52.648;4.764;2023-03-12T00:17:44;101155.41;;;8.31;66.01
64388;BME280;50709;52.648;4.764;2023-03-12T00:20:10;101157.63;;;8.07;65.07
64388;BME280;50709;52.648;4.764;2023-03-12T00:22:36;101150.78;;;8.13;66.18
64388;BME280;50709;52.648;4.764;2023-03-12T00:25:11;101116.09;;;7.65;65.42
64388;BME280;50709;52.648;4.764;2023-03-12T00:27:36;101148.44;;;7.79;65.36
64388;BME280;50709;52.648;4.764;2023-03-12T00:30:03;101139.91;;;7.40;64.58
64388;BME280;50709;52.648;4.764;2023-03-12T00:32:31;101117.19;;;7.76;63.63
64388;BME280;50709;52.648;4.764;2023-03-12T00:34:57;101137.66;;;8.06;65.06
64388;BME280;50709;52.648;4.764;2023-03-12T00:37:23;101131.53;;;7.57;62.27
64388;BME280;50709;52.648;4.764;2023-03-12T00:39:48;101127.06;;;7.97;65.91
64388;BME280;50709;52.648;4.764;2023-03-12T00:42:13;101124.84;;;8.19;65.88
64388;BME280;50709;52.648;4.764;2023-03-12T00:44:39;101109.03;;;8.06;64.75
64388;BME280;50709;52.648;4.764;2023-03-12T00:47:04;101122.50;;;8.34;64.53
64388;BME280;50709;52.648;4.764;2023-03-12T00:49:30;101116.44;;;7.82;62.01
64388;BME280;50709;52.648;4.764;2023-03-12T00:51:55;101114.78;;;8.42;65.34
64388;BME280;50709;52.648;4.764;2023-03-12T00:54:21;101111.56;;;8.57;65.12
64388;BME280;50709;52.648;4.764;2023-03-12T00:56:47;101107.69;;;8.30;61.99
64388;BME280;50709;52.648;4.764;2023-03-12T00:59:13;101100.09;;;7.92;62.19
64388;BME280;50709;52.648;4.764;2023-03-12T01:01:38;101116.03;;;8.11;62.86
64388;BME280;50709;52.648;4.764;2023-03-12T01:04:04;101102.25;;;8.18;64.93
64388;BME280;50709;52.648;4.764;2023-03-12T01:06:29;101113.53;;;8.15;62.82
64388;BME280;50709;52.648;4.764;2023-03-12T01:08:54;101111.63;;;8.06;65.16
64388;BME280;50709;52.648;4.764;2023-03-12T01:11:20;101114.63;;;8.31;65.03
64388;BME280;50709;52.648;4.764;2023-03-12T01:13:46;101066.06;;;8.30;65.77
64388;BME280;50709;52.648;4.764;2023-03-12T01:16:12;101073.09;;;8.37;64.10
64388;BME280;50709;52.648;4.764;2023-03-12T01:18:37;101104.72;;;8.64;63.78
64388;BME280;50709;52.648;4.764;2023-03-12T01:21:03;101090.06;;;8.70;64.27
64388;BME280;50709;52.648;4.764;2023-03-12T01:23:29;101095.22;;;8.09;61.52
64388;BME280;50709;52.648;4.764;2023-03-12T01:25:54;101104.81;;;8.68;64.03
64388;BME280;50709;52.648;4.764;2023-03-12T01:28:23;101094.88;;;8.44;61.96
64388;BME280;50709;52.648;4.764;2023-03-12T01:30:48;101081.06;;;8.47;63.15
64388;BME280;50709;52.648;4.764;2023-03-12T01:33:14;101067.06;;;8.40;63.88
64388;BME280;50709;52.648;4.764;2023-03-12T01:35:40;101079.72;;;7.66;60.37
64388;BME280;50709;52.648;4.764;2023-03-12T01:38:06;101065.13;;;7.74;62.79
64388;BME280;50709;52.648;4.764;2023-03-12T01:40:34;101036.06;;;7.99;63.93
64388;BME280;50709;52.648;4.764;2023-03-12T01:43:21;101060.69;;;7.67;63.70
64388;BME280;50709;52.648;4.764;2023-03-12T01:46:01;101076.78;;;7.97;64.36
64388;BME280;50709;52.648;4.764;2023-03-12T01:48:40;101061.50;;;8.17;64.65
64388;BME280;50709;52.648;4.764;2023-03-12T01:51:09;101072.00;;;8.23;62.49
64388;BME280;50709;52.648;4.764;2023-03-12T01:53:36;101067.63;;;8.20;63.30
64388;BME280;50709;52.648;4.764;2023-03-12T01:56:03;101055.47;;;7.18;57.88
64388;BME280;50709;52.648;4.764;2023-03-12T01:58:30;101004.81;;;6.96;62.56
64388;BME280;50709;52.648;4.764;2023-03-12T02:00:57;101048.97;;;7.42;62.13
64388;BME280;50709;52.648;4.764;2023-03-12T02:03:22;101025.78;;;7.53;60.86
64388;BME280;50709;52.648;4.764;2023-03-12T02:08:19;101025.13;;;7.65;59.87
64388;BME280;50709;52.648;4.764;2023-03-12T02:10:45;101024.44;;;7.75;59.91
64388;BME280;50709;52.648;4.764;2023-03-12T02:13:10;101020.63;;;8.09;61.69
64388;BME280;50709;52.648;4.764;2023-03-12T02:15:36;101020.44;;;7.97;61.54
64388;BME280;50709;52.648;4.764;2023-03-12T02:18:07;101017.06;;;7.49;61.48
64388;BME280;50709;52.648;4.764;2023-03-12T02:20:40;101012.28;;;7.74;61.33
64388;BME280;50709;52.648;4.764;2023-03-12T02:23:19;101005.63;;;8.51;62.21
64388;BME280;50709;52.648;4.764;2023-03-12T02:25:47;101018.06;;;8.11;61.71
64388;BME280;50709;52.648;4.764;2023-03-12T02:28:16;101009.47;;;8.17;60.38
64388;BME280;50709;52.648;4.764;2023-03-12T02:30:47;101005.78;;;8.01;60.68
64388;BME280;50709;52.648;4.764;2023-03-12T02:33:13;101006.91;;;8.20;61.57
64388;BME280;50709;52.648;4.764;2023-03-12T02:35:42;100967.50;;;7.37;61.60
64388;BME280;50709;52.648;4.764;2023-03-12T02:40:53;100995.97;;;7.83;60.83
64388;BME280;50709;52.648;4.764;2023-03-12T02:43:20;100982.00;;;7.76;60.09
64388;BME280;50709;52.648;4.764;2023-03-12T02:45:46;100958.97;;;7.46;60.50
64388;BME280;50709;52.648;4.764;2023-03-12T02:48:12;100977.47;;;7.64;60.28
64388;BME280;50709;52.648;4.764;2023-03-12T02:50:37;100971.66;;;7.29;59.24
64388;BME280;50709;52.648;4.764;2023-03-12T02:53:03;100959.56;;;7.29;57.76
64388;BME280;50709;52.648;4.764;2023-03-12T02:55:28;100964.97;;;7.43;60.08
64388;BME280;50709;52.648;4.764;2023-03-12T02:57:53;100932.31;;;7.57;62.05
64388;BME280;50709;52.648;4.764;2023-03-12T03:00:19;100931.03;;;7.87;60.49
64388;BME280;50709;52.648;4.764;2023-03-12T03:02:44;100941.97;;;7.13;58.75
64388;BME280;50709;52.648;4.764;2023-03-12T03:05:10;100944.81;;;7.28;60.84
64388;BME280;50709;52.648;4.764;2023-03-12T03:07:36;100931.53;;;7.65;58.80
64388;BME280;50709;52.648;4.764;2023-03-12T03:10:03;100913.31;;;7.11;56.98
64388;BME280;50709;52.648;4.764;2023-03-12T03:12:34;100920.97;;;7.54;60.75
64388;BME280;50709;52.648;4.764;2023-03-12T03:15:00;100871.38;;;6.88;61.06
64388;BME280;50709;52.648;4.764;2023-03-12T03:17:27;100899.38;;;7.04;60.00
64388;BME280;50709;52.648;4.764;2023-03-12T03:19:52;100890.91;;;7.15;61.25
64388;BME280;50709;52.648;4.764;2023-03-12T03:22:19;100884.25;;;6.80;57.64
64388;BME280;50709;52.648;4.764;2023-03-12T03:24:45;100889.44;;;7.32;62.28
64388;BME280;50709;52.648;4.764;2023-03-12T03:27:10;100893.88;;;6.86;60.88
64388;BME280;50709;52.648;4.764;2023-03-12T03:29:36;100890.56;;;6.96;61.63
64388;BME280;50709;52.648;4.764;2023-03-12T03:32:02;100873.13;;;6.42;58.01
64388;BME280;50709;52.648;4.764;2023-03-12T03:34:27;100885.84;;;7.22;61.62
64388;BME280;50709;52.648;4.764;2023-03-12T03:36:52;100883.78;;;7.04;62.11
64388;BME280;50709;52.648;4.764;2023-03-12T03:39:18;100873.81;;;7.28;62.11
64388;BME280;50709;52.648;4.764;2023-03-12T03:41:44;100875.50;;;6.75;58.05
64388;BME280;50709;52.648;4.764;2023-03-12T03:44:11;100863.69;;;6.45;58.55
64388;BME280;50709;52.648;4.764;2023-03-12T03:46:37;100887.47;;;6.67;57.91
64388;BME280;50709;52.648;4.764;2023-03-12T03:49:02;100875.50;;;7.27;61.77
64388;BME280;50709;52.648;4.764;2023-03-12T03:51:27;100864.69;;;6.52;57.64
64388;BME280;50709;52.648;4.764;2023-03-12T03:53:53;100863.91;;;7.05;60.22
64388;BME280;50709;52.648;4.764;2023-03-12T03:56:18;100849.81;;;6.92;60.54
64388;BME280;50709;52.648;4.764;2023-03-12T03:58:44;100847.78;;;6.74;61.09
64388;BME280;50709;52.648;4.764;2023-03-12T04:01:12;100803.59;;;6.69;61.28
64388;BME280;50709;52.648;4.764;2023-03-12T04:03:37;100852.66;;;7.06;61.29
64388;BME280;50709;52.648;4.764;2023-03-12T04:06:04;100847.13;;;6.84;59.93
64388;BME280;50709;52.648;4.764;2023-03-12T04:08:30;100822.44;;;6.59;59.78
64388;BME280;50709;52.648;4.764;2023-03-12T04:10:57;100836.66;;;6.81;59.42
64388;BME280;50709;52.648;4.764;2023-03-12T04:13:22;100840.97;;;6.81;61.60
64388;BME280;50709;52.648;4.764;2023-03-12T04:15:52;100790.69;;;6.25;59.12
64388;BME280;50709;52.648;4.764;2023-03-12T04:18:17;100828.50;;;6.61;60.80
64388;BME280;50709;52.648;4.764;2023-03-12T04:20:43;100791.34;;;6.15;58.36
64388;BME280;50709;52.648;4.764;2023-03-12T04:23:09;100801.28;;;6.88;60.95
64388;BME280;50709;52.648;4.764;2023-03-12T04:25:35;100822.19;;;6.96;61.34
64388;BME280;50709;52.648;4.764;2023-03-12T04:28:01;100833.34;;;6.88;61.34
64388;BME280;50709;52.648;4.764;2023-03-12T04:30:26;100840.50;;;6.54;59.17
64388;BME280;50709;52.648;4.764;2023-03-12T04:32:52;100813.13;;;6.72;60.59
64388;BME280;50709;52.648;4.764;2023-03-12T04:35:18;100815.50;;;7.10;61.76
64388;BME280;50709;52.648;4.764;2023-03-12T04:37:43;100816.94;;;6.91;61.00
64388;BME280;50709;52.648;4.764;2023-03-12T04:40:10;100756.47;;;6.46;60.20
64388;BME280;50709;52.648;4.764;2023-03-12T04:42:35;100796.72;;;7.28;62.34
64388;BME280;50709;52.648;4.764;2023-03-12T04:45:03;100800.47;;;7.47;60.64
64388;BME280;50709;52.648;4.764;2023-03-12T04:47:30;100750.91;;;6.26;60.82
64388;BME280;50709;52.648;4.764;2023-03-12T04:49:56;100797.38;;;7.15;61.98
64388;BME280;50709;52.648;4.764;2023-03-12T04:52:21;100791.50;;;6.71;61.63
64388;BME280;50709;52.648;4.764;2023-03-12T04:54:46;100762.53;;;7.00;62.46
64388;BME280;50709;52.648;4.764;2023-03-12T04:57:12;100780.47;;;7.43;62.24
64388;BME280;50709;52.648;4.764;2023-03-12T04:59:37;100774.63;;;6.98;62.70
64388;BME280;50709;52.648;4.764;2023-03-12T05:02:03;100779.19;;;6.61;61.68
64388;BME280;50709;52.648;4.764;2023-03-12T05:04:28;100769.97;;;6.77;63.20
64388;BME280;50709;52.648;4.764;2023-03-12T05:06:53;100718.34;;;6.44;63.39
64388;BME280;50709;52.648;4.764;2023-03-12T05:09:19;100761.00;;;6.58;62.15
64388;BME280;50709;52.648;4.764;2023-03-12T05:11:44;100751.44;;;6.57;63.51
64388;BME280;50709;52.648;4.764;2023-03-12T05:14:10;100706.47;;;6.55;64.68
64388;BME280;50709;52.648;4.764;2023-03-12T05:16:36;100745.38;;;6.55;64.82
64388;BME280;50709;52.648;4.764;2023-03-12T05:19:02;100730.00;;;6.66;64.16
64388;BME280;50709;52.648;4.764;2023-03-12T05:21:29;100710.13;;;6.17;64.98
64388;BME280;50709;52.648;4.764;2023-03-12T05:23:54;100749.28;;;6.31;66.45
64388;BME280;50709;52.648;4.764;2023-03-12T05:28:47;100741.63;;;6.39;65.70
64388;BME280;50709;52.648;4.764;2023-03-12T05:31:14;100696.97;;;6.06;66.27
64388;BME280;50709;52.648;4.764;2023-03-12T05:33:40;100740.00;;;6.44;66.85
64388;BME280;50709;52.648;4.764;2023-03-12T05:36:06;100741.84;;;6.51;67.81
64388;BME280;50709;52.648;4.764;2023-03-12T05:38:31;100706.78;;;6.23;67.19
64388;BME280;50709;52.648;4.764;2023-03-12T05:40:57;100727.56;;;6.26;66.47
64388;BME280;50709;52.648;4.764;2023-03-12T05:43:24;100735.44;;;6.29;67.01
64388;BME280;50709;52.648;4.764;2023-03-12T05:45:51;100677.19;;;6.10;66.63
64388;BME280;50709;52.648;4.764;2023-03-12T05:48:17;100727.03;;;6.44;65.71
64388;BME280;50709;52.648;4.764;2023-03-12T05:50:43;100732.94;;;6.87;66.69
64388;BME280;50709;52.648;4.764;2023-03-12T05:53:08;100703.84;;;6.53;67.19
64388;BME280;50709;52.648;4.764;2023-03-12T05:55:36;100715.25;;;6.65;65.57
64388;BME280;50709;52.648;4.764;2023-03-12T05:58:03;100715.25;;;6.63;67.21
64388;BME280;50709;52.648;4.764;2023-03-12T06:00:29;100706.81;;;6.77;66.57
64388;BME280;50709;52.648;4.764;2023-03-12T06:02:54;100705.88;;;6.73;67.11
64388;BME280;50709;52.648;4.764;2023-03-12T06:05:19;100704.94;;;7.26;66.71
64388;BME280;50709;52.648;4.764;2023-03-12T06:07:45;100724.69;;;7.16;66.86
64388;BME280;50709;52.648;4.764;2023-03-12T06:10:10;100713.19;;;7.00;66.81
64388;BME280;50709;52.648;4.764;2023-03-12T06:12:36;100702.41;;;6.20;67.93
64388;BME280;50709;52.648;4.764;2023-03-12T06:15:01;100683.56;;;6.84;68.98
64388;BME280;50709;52.648;4.764;2023-03-12T06:17:28;100728.91;;;7.08;68.50
64388;BME280;50709;52.648;4.764;2023-03-12T06:19:54;100729.44;;;6.33;69.75
64388;BME280;50709;52.648;4.764;2023-03-12T06:22:19;100704.53;;;6.45;70.02
64388;BME280;50709;52.648;4.764;2023-03-12T06:24:44;100711.44;;;5.95;69.77
64388;BME280;50709;52.648;4.764;2023-03-12T06:27:12;100724.41;;;5.95;71.68
64388;BME280;50709;52.648;4.764;2023-03-12T06:29:38;100721.28;;;6.64;71.95
64388;BME280;50709;52.648;4.764;2023-03-12T06:32:03;100718.09;;;6.28;71.03
64388;BME280;50709;52.648;4.764;2023-03-12T06:34:29;100706.84;;;6.80;71.21
64388;BME280;50709;52.648;4.764;2023-03-12T06:36:54;100703.94;;;5.65;71.22
64388;BME280;50709;52.648;4.764;2023-03-12T06:39:20;100701.97;;;7.01;72.47
64388;BME280;50709;52.648;4.764;2023-03-12T06:41:45;100690.06;;;6.57;72.80
64388;BME280;50709;52.648;4.764;2023-03-12T06:44:10;100694.75;;;6.28;73.01
64388;BME280;50709;52.648;4.764;2023-03-12T06:46:36;100679.25;;;6.31;73.48
64388;BME280;50709;52.648;4.764;2023-03-12T06:49:02;100653.47;;;5.92;73.03
64388;BME280;50709;52.648;4.764;2023-03-12T06:51:28;100671.25;;;6.19;74.72
64388;BME280;50709;52.648;4.764;2023-03-12T06:53:53;100648.69;;;6.13;74.05
64388;BME280;50709;52.648;4.764;2023-03-12T06:56:18;100659.66;;;6.49;74.31
64388;BME280;50709;52.648;4.764;2023-03-12T06:58:44;100653.50;;;6.44;73.67
64388;BME280;50709;52.648;4.764;2023-03-12T07:01:09;100651.63;;;6.90;73.05
64388;BME280;50709;52.648;4.764;2023-03-12T07:03:35;100634.66;;;6.55;73.36
64388;BME280;50709;52.648;4.764;2023-03-12T07:06:00;100655.72;;;6.76;73.16
64388;BME280;50709;52.648;4.764;2023-03-12T07:08:26;100659.81;;;7.19;73.03
64388;BME280;50709;52.648;4.764;2023-03-12T07:10:55;100662.44;;;7.22;72.74
64388;BME280;50709;52.648;4.764;2023-03-12T07:13:21;100672.69;;;7.10;73.04
64388;BME280;50709;52.648;4.764;2023-03-12T07:15:46;100665.16;;;7.30;71.85
64388;BME280;50709;52.648;4.764;2023-03-12T07:18:12;100635.88;;;7.45;71.44
64388;BME280;50709;52.648;4.764;2023-03-12T07:20:39;100671.56;;;6.93;71.47
64388;BME280;50709;52.648;4.764;2023-03-12T07:23:05;100655.72;;;7.37;72.51
64388;BME280;50709;52.648;4.764;2023-03-12T07:25:37;100682.00;;;7.66;71.31
64388;BME280;50709;52.648;4.764;2023-03-12T07:28:04;100649.81;;;7.53;70.60
64388;BME280;50709;52.648;4.764;2023-03-12T07:30:29;100672.41;;;7.57;72.73
64388;BME280;50709;52.648;4.764;2023-03-12T07:33:04;100665.66;;;7.75;71.19
64388;BME280;50709;52.648;4.764;2023-03-12T07:35:31;100642.19;;;7.69;70.37
64388;BME280;50709;52.648;4.764;2023-03-12T07:37:57;100680.91;;;7.44;70.77
64388;BME280;50709;52.648;4.764;2023-03-12T07:40:23;100671.09;;;8.00;71.53
64388;BME280;50709;52.648;4.764;2023-03-12T07:42:51;100663.19;;;7.89;71.21
64388;BME280;50709;52.648;4.764;2023-03-12T07:45:17;100682.09;;;7.71;71.31
64388;BME280;50709;52.648;4.764;2023-03-12T07:47:42;100620.22;;;7.40;71.36
64388;BME280;50709;52.648;4.764;2023-03-12T07:50:08;100671.00;;;7.89;72.28
64388;BME280;50709;52.648;4.764;2023-03-12T07:52:34;100664.72;;;7.70;71.31
64388;BME280;50709;52.648;4.764;2023-03-12T07:54:59;100644.22;;;7.19;73.61
64388;BME280;50709;52.648;4.764;2023-03-12T07:57:24;100652.91;;;7.21;72.17
64388;BME280;50709;52.648;4.764;2023-03-12T07:59:50;100640.31;;;7.57;72.64
64388;BME280;50709;52.648;4.764;2023-03-12T08:02:16;100656.47;;;8.09;71.84
64388;BME280;50709;52.648;4.764;2023-03-12T08:04:41;100645.31;;;8.23;70.98
64388;BME280;50709;52.648;4.764;2023-03-12T08:07:07;100657.06;;;7.82;71.10
64388;BME280;50709;52.648;4.764;2023-03-12T08:09:32;100655.38;;;7.84;71.52
64388;BME280;50709;52.648;4.764;2023-03-12T08:11:58;100639.16;;;8.13;70.59
64388;BME280;50709;52.648;4.764;2023-03-12T08:14:24;100648.72;;;8.14;71.01
64388;BME280;50709;52.648;4.764;2023-03-12T08:16:49;100647.88;;;8.17;71.47
64388;BME280;50709;52.648;4.764;2023-03-12T08:19:14;100648.13;;;8.46;71.11
64388;BME280;50709;52.648;4.764;2023-03-12T08:21:40;100660.59;;;7.87;70.76
64388;BME280;50709;52.648;4.764;2023-03-12T08:24:05;100636.75;;;8.36;71.00
64388;BME280;50709;52.648;4.764;2023-03-12T08:26:33;100647.31;;;8.53;70.68
64388;BME280;50709;52.648;4.764;2023-03-12T08:28:59;100628.84;;;8.24;70.98
64388;BME280;50709;52.648;4.764;2023-03-12T08:31:26;100647.28;;;8.49;71.66
64388;BME280;50709;52.648;4.764;2023-03-12T08:33:52;100619.59;;;8.58;70.46
64388;BME280;50709;52.648;4.764;2023-03-12T08:36:17;100634.44;;;8.73;71.14
64388;BME280;50709;52.648;4.764;2023-03-12T08:38:43;100638.69;;;8.64;71.18
64388;BME280;50709;52.648;4.764;2023-03-12T08:41:08;100634.47;;;8.75;70.96
64388;BME280;50709;52.648;4.764;2023-03-12T08:43:34;100621.31;;;8.59;70.75
64388;BME280;50709;52.648;4.764;2023-03-12T08:46:01;100631.06;;;8.91;70.65
64388;BME280;50709;52.648;4.764;2023-03-12T08:48:29;100605.75;;;8.69;70.92
64388;BME280;50709;52.648;4.764;2023-03-12T08:50:56;100649.56;;;9.41;69.77
64388;BME280;50709;52.648;4.764;2023-03-12T08:53:22;100651.06;;;8.99;70.67
64388;BME280;50709;52.648;4.764;2023-03-12T08:55:48;100658.19;;;9.28;70.44
64388;BME280;50709;52.648;4.764;2023-03-12T08:58:13;100663.44;;;9.40;70.27
64388;BME280;50709;52.648;4.764;2023-03-12T09:00:38;100592.75;;;8.70;70.33
64388;BME280;50709;52.648;4.764;2023-03-12T09:03:04;100650.31;;;9.23;71.15
64388;BME280;50709;52.648;4.764;2023-03-12T09:05:30;100659.13;;;9.43;70.78
64388;BME280;50709;52.648;4.764;2023-03-12T09:07:56;100654.72;;;9.30;71.06
64388;BME280;50709;52.648;4.764;2023-03-12T09:10:22;100654.78;;;9.49;70.62
64388;BME280;50709;52.648;4.764;2023-03-12T09:12:47;100641.81;;;9.75;69.22
64388;BME280;50709;52.648;4.764;2023-03-12T09:15:13;100651.38;;;9.71;71.01
64388;BME280;50709;52.648;4.764;2023-03-12T09:17:38;100651.41;;;9.94;69.78
64388;BME280;50709;52.648;4.764;2023-03-12T09:20:05;100646.22;;;10.05;68.44
64388;BME280;50709;52.648;4.764;2023-03-12T09:22:32;100647.09;;;9.92;71.41
64388;BME280;50709;52.648;4.764;2023-03-12T09:25:03;100653.19;;;10.28;69.98
64388;BME280;50709;52.648;4.764;2023-03-12T09:27:29;100627.09;;;10.30;67.63
64388;BME280;50709;52.648;4.764;2023-03-12T09:29:54;100661.94;;;10.61;68.32
64388;BME280;50709;52.648;4.764;2023-03-12T09:32:19;100651.47;;;10.58;67.68
64388;BME280;50709;52.648;4.764;2023-03-12T09:34:45;100653.19;;;10.84;66.22
64388;BME280;50709;52.648;4.764;2023-03-12T09:37:11;100637.47;;;11.01;63.16
64388;BME280;50709;52.648;4.764;2023-03-12T09:39:36;100657.50;;;10.97;66.85
64388;BME280;50709;52.648;4.764;2023-03-12T09:42:04;100615.75;;;10.74;65.71
64388;BME280;50709;52.648;4.764;2023-03-12T09:44:42;100656.63;;;11.12;64.50
64388;BME280;50709;52.648;4.764;2023-03-12T09:47:36;100660.13;;;10.94;66.85
64388;BME280;50709;52.648;4.764;2023-03-12T09:52:57;100654.75;;;11.40;63.18
64388;BME280;50709;52.648;4.764;2023-03-12T09:55:24;100640.91;;;11.15;64.95
64388;BME280;50709;52.648;4.764;2023-03-12T09:57:51;100650.44;;;11.32;63.27
64388;BME280;50709;52.648;4.764;2023-03-12T10:00:23;100640.81;;;11.32;65.68
64388;BME280;50709;52.648;4.764;2023-03-12T10:03:10;100646.00;;;11.49;64.17
64388;BME280;50709;52.648;4.764;2023-03-12T10:16:56;100623.13;;;11.81;63.78
64388;BME280;50709;52.648;4.764;2023-03-12T10:28:22;100639.25;;;12.48;70.91
64388;BME280;50709;52.648;4.764;2023-03-12T10:30:56;100642.72;;;12.51;71.13
64388;BME280;50709;52.648;4.764;2023-03-12T10:33:27;100622.09;;;12.11;70.10
64388;BME280;50709;52.648;4.764;2023-03-12T10:35:58;100645.31;;;12.54;69.93
64388;BME280;50709;52.648;4.764;2023-03-12T10:38:28;100639.97;;;12.65;67.47
64388;BME280;50709;52.648;4.764;2023-03-12T10:40:54;100649.56;;;12.66;67.80
64388;BME280;50709;52.648;4.764;2023-03-12T10:43:19;100618.22;;;12.55;68.92
64388;BME280;50709;52.648;4.764;2023-03-12T10:46:03;100636.44;;;12.69;69.18
64388;BME280;50709;52.648;4.764;2023-03-12T10:48:32;100659.84;;;12.85;69.48
64388;BME280;50709;52.648;4.764;2023-03-12T10:51:01;100666.75;;;12.95;66.89
64388;BME280;50709;52.648;4.764;2023-03-12T10:53:32;100657.06;;;13.02;66.66
64388;BME280;50709;52.648;4.764;2023-03-12T10:56:11;100673.81;;;12.87;66.77
64388;BME280;50709;52.648;4.764;2023-03-12T10:58:42;100618.13;;;12.66;64.73
64388;BME280;50709;52.648;4.764;2023-03-12T11:03:39;100652.53;;;13.13;64.19
64388;BME280;50709;52.648;4.764;2023-03-12T11:06:06;100652.44;;;13.25;62.79
64388;BME280;50709;52.648;4.764;2023-03-12T11:08:34;100640.22;;;13.20;62.78
64388;BME280;50709;52.648;4.764;2023-03-12T11:11:01;100666.28;;;13.38;61.89
64388;BME280;50709;52.648;4.764;2023-03-12T11:13:40;100661.31;;;13.12;62.48
64388;BME280;50709;52.648;4.764;2023-03-12T11:18:53;100665.06;;;13.67;63.61
64388;BME280;50709;52.648;4.764;2023-03-12T11:21:20;100670.66;;;14.03;61.06
64388;BME280;50709;52.648;4.764;2023-03-12T11:24:03;100653.41;;;14.43;58.63
64388;BME280;50709;52.648;4.764;2023-03-12T11:26:35;100635.97;;;14.89;58.18
64388;BME280;50709;52.648;4.764;2023-03-12T11:29:14;100667.28;;;15.01;58.48
64388;BME280;50709;52.648;4.764;2023-03-12T11:31:53;100639.28;;;14.99;57.42
64388;BME280;50709;52.648;4.764;2023-03-12T11:34:24;100644.75;;;15.31;58.43
64388;BME280;50709;52.648;4.764;2023-03-12T11:56:33;100645.41;;;16.92;52.82
64388;BME280;50709;52.648;4.764;2023-03-12T12:19:06;100624.19;;;16.96;53.02
64388;BME280;50709;52.648;4.764;2023-03-12T12:21:39;100617.59;;;16.78;53.69
64388;BME280;50709;52.648;4.764;2023-03-12T12:24:32;100572.69;;;16.16;55.00
64388;BME280;50709;52.648;4.764;2023-03-12T12:27:35;100603.19;;;16.24;55.87
64388;BME280;50709;52.648;4.764;2023-03-12T12:35:38;100619.38;;;16.78;54.41
64388;BME280;50709;52.648;4.764;2023-03-12T12:38:20;100586.41;;;15.92;54.93
64388;BME280;50709;52.648;4.764;2023-03-12T12:40:59;100601.09;;;16.03;55.24
64388;BME280;50709;52.648;4.764;2023-03-12T12:46:29;100604.28;;;16.50;54.97
64388;BME280;50709;52.648;4.764;2023-03-12T12:49:01;100598.53;;;16.34;55.58
64388;BME280;50709;52.648;4.764;2023-03-12T12:51:34;100603.94;;;16.62;54.58
64388;BME280;50709;52.648;4.764;2023-03-12T12:54:26;100618.13;;;15.88;57.01
64388;BME280;50709;52.648;4.764;2023-03-12T12:56:58;100602.97;;;16.34;55.13
64388;BME280;50709;52.648;4.764;2023-03-12T12:59:54;100613.53;;;16.32;55.01
64388;BME280;50709;52.648;4.764;2023-03-12T13:02:24;100602.25;;;16.61;54.38
64388;BME280;50709;52.648;4.764;2023-03-12T13:04:57;100611.44;;;16.45;54.33
64388;BME280;50709;52.648;4.764;2023-03-12T13:09:55;100600.78;;;16.82;53.28
64388;BME280;50709;52.648;4.764;2023-03-12T13:12:45;100601.22;;;16.33;56.12
64388;BME280;50709;52.648;4.764;2023-03-12T13:15:34;100599.81;;;17.18;53.68
64388;BME280;50709;52.648;4.764;2023-03-12T13:20:42;100607.81;;;17.15;54.05
64388;BME280;50709;52.648;4.764;2023-03-12T13:23:31;100589.06;;;17.24;53.58
64388;BME280;50709;52.648;4.764;2023-03-12T13:26:14;100609.50;;;16.52;54.45
64388;BME280;50709;52.648;4.764;2023-03-12T13:29:16;100605.31;;;17.40;54.52
64388;BME280;50709;52.648;4.764;2023-03-12T13:31:43;100593.88;;;17.70;53.92
64388;BME280;50709;52.648;4.764;2023-03-12T13:36:50;100609.47;;;18.06;53.03
64388;BME280;50709;52.648;4.764;2023-03-12T13:41:53;100604.41;;;17.99;51.64
64388;BME280;50709;52.648;4.764;2023-03-12T13:47:20;100623.88;;;17.67;53.78
64388;BME280;50709;52.648;4.764;2023-03-12T13:50:03;100643.00;;;17.75;53.51
64388;BME280;50709;52.648;4.764;2023-03-12T13:52:40;100634.53;;;16.70;55.05
64388;BME280;50709;52.648;4.764;2023-03-12T13:57:43;100639.72;;;17.07;56.25
64388;BME280;50709;52.648;4.764;2023-03-12T14:03:05;100643.16;;;17.69;54.16
64388;BME280;50709;52.648;4.764;2023-03-12T14:05:52;100641.97;;;17.79;53.67
64388;BME280;50709;52.648;4.764;2023-03-12T14:08:45;100652.50;;;18.63;51.56
64388;BME280;50709;52.648;4.764;2023-03-12T14:11:38;100672.69;;;17.54;53.21
64388;BME280;50709;52.648;4.764;2023-03-12T14:16:50;100680.38;;;18.20;53.39
64388;BME280;50709;52.648;4.764;2023-03-12T14:19:22;100676.69;;;17.67;53.85
64388;BME280;50709;52.648;4.764;2023-03-12T14:21:50;100692.84;;;17.26;55.50
64388;BME280;50709;52.648;4.764;2023-03-12T14:24:32;100654.75;;;18.22;52.59
64388;BME280;50709;52.648;4.764;2023-03-12T14:27:00;100667.09;;;17.35;51.28
64388;BME280;50709;52.648;4.764;2023-03-12T14:29:43;100670.97;;;17.81;54.10
64388;BME280;50709;52.648;4.764;2023-03-12T14:32:21;100663.19;;;16.84;52.52
64388;BME280;50709;52.648;4.764;2023-03-12T14:38:04;100652.28;;;18.17;54.04
64388;BME280;50709;52.648;4.764;2023-03-12T14:40:42;100646.78;;;17.96;53.49
64388;BME280;50709;52.648;4.764;2023-03-12T14:43:24;100643.56;;;18.13;53.32
64388;BME280;50709;52.648;4.764;2023-03-12T14:45:53;100651.72;;;18.07;53.78
64388;BME280;50709;52.648;4.764;2023-03-12T14:48:23;100646.47;;;18.85;51.32
64388;BME280;50709;52.648;4.764;2023-03-12T14:50:51;100647.75;;;18.99;50.36
64388;BME280;50709;52.648;4.764;2023-03-12T14:53:29;100615.50;;;17.53;54.69